sensor_id;sensor_type;location;lat;lon;timestamp;temperature;humidity
64705;DHT22;51131;52.298;13.686;2023-03-01T00:01:36;17.00;44.00
64705;DHT22;51131;52.298;13.686;2023-03-01T00:04:03;17.00;43.90
64705;DHT22;51131;52.298;13.686;2023-03-01T00:06:30;17.00;44.20
64705;DHT22;51131;52.298;13.686;2023-03-01T00:08:57;17.00;44.30
64705;DHT22;51131;52.298;13.686;2023-03-01T00:11:25;16.90;44.30
64705;DHT22;51131;52.298;13.686;2023-03-01T00:13:52;16.90;44.30
64705;DHT22;51131;52.298;13.686;2023-03-01T00:16:24;16.90;44.40
64705;DHT22;51131;52.298;13.686;2023-03-01T00:18:51;16.90;44.30
64705;DHT22;51131;52.298;13.686;2023-03-01T00:21:17;16.90;44.50
64705;DHT22;51131;52.298;13.686;2023-03-01T00:23:46;16.90;44.50
64705;DHT22;51131;52.298;13.686;2023-03-01T00:26:15;16.90;44.50
64705;DHT22;51131;52.298;13.686;2023-03-01T00:28:42;16.90;44.60
64705;DHT22;51131;52.298;13.686;2023-03-01T00:31:11;16.90;44.70
64705;DHT22;51131;52.298;13.686;2023-03-01T00:33:38;16.90;44.70
64705;DHT22;51131;52.298;13.686;2023-03-01T00:36:05;16.90;44.70
64705;DHT22;51131;52.298;13.686;2023-03-01T00:38:36;16.90;44.70
64705;DHT22;51131;52.298;13.686;2023-03-01T00:41:04;16.90;44.80
64705;DHT22;51131;52.298;13.686;2023-03-01T00:43:31;16.90;44.80
64705;DHT22;51131;52.298;13.686;2023-03-01T00:46:03;16.90;44.70
64705;DHT22;51131;52.298;13.686;2023-03-01T00:48:30;16.90;44.80
64705;DHT22;51131;52.298;13.686;2023-03-01T00:50:57;16.90;44.80
64705;DHT22;51131;52.298;13.686;2023-03-01T00:53:23;16.90;44.90
64705;DHT22;51131;52.298;13.686;2023-03-01T00:55:50;16.90;44.90
64705;DHT22;51131;52.298;13.686;2023-03-01T00:58:16;16.90;45.00
64705;DHT22;51131;52.298;13.686;2023-03-01T01:00:43;16.80;44.90
64705;DHT22;51131;52.298;13.686;2023-03-01T01:03:10;16.80;45.00
64705;DHT22;51131;52.298;13.686;2023-03-01T01:05:36;16.80;45.00
64705;DHT22;51131;52.298;13.686;2023-03-01T01:08:03;16.80;45.00
64705;DHT22;51131;52.298;13.686;2023-03-01T01:10:29;16.90;45.00
64705;DHT22;51131;52.298;13.686;2023-03-01T01:12:56;16.80;45.00
64705;DHT22;51131;52.298;13.686;2023-03-01T01:15:24;16.80;45.00
64705;DHT22;51131;52.298;13.686;2023-03-01T01:17:51;16.80;44.90
64705;DHT22;51131;52.298;13.686;2023-03-01T01:20:17;16.80;45.00
64705;DHT22;51131;52.298;13.686;2023-03-01T01:22:44;16.80;45.00
64705;DHT22;51131;52.298;13.686;2023-03-01T01:25:10;16.80;45.10
64705;DHT22;51131;52.298;13.686;2023-03-01T01:27:37;16.80;45.00
64705;DHT22;51131;52.298;13.686;2023-03-01T01:30:04;16.80;45.10
64705;DHT22;51131;52.298;13.686;2023-03-01T01:32:31;16.80;45.20
64705;DHT22;51131;52.298;13.686;2023-03-01T01:34:57;16.80;45.00
64705;DHT22;51131;52.298;13.686;2023-03-01T01:37:24;16.80;45.00
64705;DHT22;51131;52.298;13.686;2023-03-01T01:39:58;16.80;45.10
64705;DHT22;51131;52.298;13.686;2023-03-01T01:42:25;16.80;45.10
64705;DHT22;51131;52.298;13.686;2023-03-01T01:47:38;16.80;45.10
64705;DHT22;51131;52.298;13.686;2023-03-01T01:50:04;16.80;44.90
64705;DHT22;51131;52.298;13.686;2023-03-01T01:52:31;16.90;44.80
64705;DHT22;51131;52.298;13.686;2023-03-01T01:55:22;16.90;44.70
64705;DHT22;51131;52.298;13.686;2023-03-01T01:57:52;17.00;44.80
64705;DHT22;51131;52.298;13.686;2023-03-01T02:00:20;17.00;44.60
64705;DHT22;51131;52.298;13.686;2023-03-01T02:02:48;17.00;44.50
64705;DHT22;51131;52.298;13.686;2023-03-01T02:07:44;16.90;44.70
64705;DHT22;51131;52.298;13.686;2023-03-01T02:10:12;16.90;44.60
64705;DHT22;51131;52.298;13.686;2023-03-01T02:12:38;16.90;44.80
64705;DHT22;51131;52.298;13.686;2023-03-01T02:15:06;16.90;44.70
64705;DHT22;51131;52.298;13.686;2023-03-01T02:17:32;16.80;44.50
64705;DHT22;51131;52.298;13.686;2023-03-01T02:22:45;16.90;44.70
64705;DHT22;51131;52.298;13.686;2023-03-01T02:30:11;16.80;44.70
64705;DHT22;51131;52.298;13.686;2023-03-01T02:32:41;16.80;44.70
64705;DHT22;51131;52.298;13.686;2023-03-01T02:35:09;16.80;44.70
64705;DHT22;51131;52.298;13.686;2023-03-01T02:37:36;16.80;44.70
64705;DHT22;51131;52.298;13.686;2023-03-01T02:40:06;16.80;44.80
64705;DHT22;51131;52.298;13.686;2023-03-01T02:42:40;16.80;44.70
64705;DHT22;51131;52.298;13.686;2023-03-01T02:45:10;16.80;44.80
64705;DHT22;51131;52.298;13.686;2023-03-01T02:47:37;16.80;44.80
64705;DHT22;51131;52.298;13.686;2023-03-01T02:50:10;16.80;44.80
64705;DHT22;51131;52.298;13.686;2023-03-01T02:52:40;16.80;44.80
64705;DHT22;51131;52.298;13.686;2023-03-01T02:55:09;16.80;44.90
64705;DHT22;51131;52.298;13.686;2023-03-01T02:57:37;16.80;44.80
64705;DHT22;51131;52.298;13.686;2023-03-01T03:00:06;16.80;45.00
64705;DHT22;51131;52.298;13.686;2023-03-01T03:02:34;16.80;44.90
64705;DHT22;51131;52.298;13.686;2023-03-01T03:05:11;16.80;44.80
64705;DHT22;51131;52.298;13.686;2023-03-01T03:07:40;16.80;44.80
64705;DHT22;51131;52.298;13.686;2023-03-01T03:10:08;16.80;44.70
64705;DHT22;51131;52.298;13.686;2023-03-01T03:12:35;16.80;44.90
64705;DHT22;51131;52.298;13.686;2023-03-01T03:15:02;16.80;45.00
64705;DHT22;51131;52.298;13.686;2023-03-01T03:17:36;16.80;45.00
64705;DHT22;51131;52.298;13.686;2023-03-01T03:20:03;16.80;45.00
64705;DHT22;51131;52.298;13.686;2023-03-01T03:22:31;16.80;44.90
64705;DHT22;51131;52.298;13.686;2023-03-01T03:24:57;16.80;45.00
64705;DHT22;51131;52.298;13.686;2023-03-01T03:27:24;16.80;44.90
64705;DHT22;51131;52.298;13.686;2023-03-01T03:29:50;16.80;44.90
64705;DHT22;51131;52.298;13.686;2023-03-01T03:32:17;16.80;45.00
64705;DHT22;51131;52.298;13.686;2023-03-01T03:34:44;16.80;44.90
64705;DHT22;51131;52.298;13.686;2023-03-01T03:37:10;16.80;44.80
64705;DHT22;51131;52.298;13.686;2023-03-01T03:39:57;16.80;44.90
64705;DHT22;51131;52.298;13.686;2023-03-01T03:42:25;16.70;44.90
64705;DHT22;51131;52.298;13.686;2023-03-01T03:44:51;16.70;44.80
64705;DHT22;51131;52.298;13.686;2023-03-01T03:47:18;16.80;44.90
64705;DHT22;51131;52.298;13.686;2023-03-01T03:49:44;16.80;44.80
64705;DHT22;51131;52.298;13.686;2023-03-01T03:52:11;16.80;44.80
64705;DHT22;51131;52.298;13.686;2023-03-01T03:54:40;16.70;44.80
64705;DHT22;51131;52.298;13.686;2023-03-01T03:57:07;16.70;45.00
64705;DHT22;51131;52.298;13.686;2023-03-01T03:59:34;16.70;44.80
64705;DHT22;51131;52.298;13.686;2023-03-01T04:02:00;16.70;44.80
64705;DHT22;51131;52.298;13.686;2023-03-01T04:04:27;16.70;44.80
64705;DHT22;51131;52.298;13.686;2023-03-01T04:06:53;16.70;44.70
64705;DHT22;51131;52.298;13.686;2023-03-01T04:09:20;16.70;44.70
64705;DHT22;51131;52.298;13.686;2023-03-01T04:11:47;16.70;44.70
64705;DHT22;51131;52.298;13.686;2023-03-01T04:14:13;16.70;44.70
64705;DHT22;51131;52.298;13.686;2023-03-01T04:16:40;16.70;44.80
64705;DHT22;51131;52.298;13.686;2023-03-01T04:19:06;16.70;44.60
64705;DHT22;51131;52.298;13.686;2023-03-01T04:21:33;16.70;44.60
64705;DHT22;51131;52.298;13.686;2023-03-01T04:24:00;16.80;44.50
64705;DHT22;51131;52.298;13.686;2023-03-01T04:26:26;16.80;44.20
64705;DHT22;51131;52.298;13.686;2023-03-01T04:28:53;16.80;44.10
64705;DHT22;51131;52.298;13.686;2023-03-01T04:31:20;16.90;44.20
64705;DHT22;51131;52.298;13.686;2023-03-01T04:33:49;16.90;44.10
64705;DHT22;51131;52.298;13.686;2023-03-01T04:36:18;16.90;44.10
64705;DHT22;51131;52.298;13.686;2023-03-01T04:38:45;16.80;44.10
64705;DHT22;51131;52.298;13.686;2023-03-01T04:41:18;16.80;44.00
64705;DHT22;51131;52.298;13.686;2023-03-01T04:43:45;16.80;44.20
64705;DHT22;51131;52.298;13.686;2023-03-01T04:46:13;16.80;44.20
64705;DHT22;51131;52.298;13.686;2023-03-01T04:48:41;16.80;44.00
64705;DHT22;51131;52.298;13.686;2023-03-01T04:51:08;16.80;44.20
64705;DHT22;51131;52.298;13.686;2023-03-01T04:53:35;16.80;44.20
64705;DHT22;51131;52.298;13.686;2023-03-01T04:56:04;16.80;44.20
64705;DHT22;51131;52.298;13.686;2023-03-01T04:58:31;16.80;44.20
64705;DHT22;51131;52.298;13.686;2023-03-01T05:00:58;16.80;44.20
64705;DHT22;51131;52.298;13.686;2023-03-01T05:03:24;17.10;44.40
64705;DHT22;51131;52.298;13.686;2023-03-01T05:05:51;16.80;44.20
64705;DHT22;51131;52.298;13.686;2023-03-01T05:08:18;16.80;44.20
64705;DHT22;51131;52.298;13.686;2023-03-01T05:10:45;16.70;44.10
64705;DHT22;51131;52.298;13.686;2023-03-01T05:13:13;16.70;44.20
64705;DHT22;51131;52.298;13.686;2023-03-01T05:15:41;16.80;44.20
64705;DHT22;51131;52.298;13.686;2023-03-01T05:18:08;16.80;44.30
64705;DHT22;51131;52.298;13.686;2023-03-01T05:20:37;16.70;44.00
64705;DHT22;51131;52.298;13.686;2023-03-01T05:23:04;16.80;44.20
64705;DHT22;51131;52.298;13.686;2023-03-01T05:25:34;17.30;44.70
64705;DHT22;51131;52.298;13.686;2023-03-01T05:28:02;16.80;44.00
64705;DHT22;51131;52.298;13.686;2023-03-01T05:30:31;16.80;44.20
64705;DHT22;51131;52.298;13.686;2023-03-01T05:32:59;16.80;44.00
64705;DHT22;51131;52.298;13.686;2023-03-01T05:35:26;16.80;44.10
64705;DHT22;51131;52.298;13.686;2023-03-01T05:37:53;16.80;44.30
64705;DHT22;51131;52.298;13.686;2023-03-01T05:40:20;16.70;43.80
64705;DHT22;51131;52.298;13.686;2023-03-01T05:42:48;16.90;44.20
64705;DHT22;51131;52.298;13.686;2023-03-01T05:45:15;16.80;44.20
64705;DHT22;51131;52.298;13.686;2023-03-01T05:47:43;16.70;43.90
64705;DHT22;51131;52.298;13.686;2023-03-01T05:50:14;16.80;44.10
64705;DHT22;51131;52.298;13.686;2023-03-01T05:52:40;16.80;44.10
64705;DHT22;51131;52.298;13.686;2023-03-01T05:55:07;16.70;44.10
64705;DHT22;51131;52.298;13.686;2023-03-01T05:57:34;16.70;44.10
64705;DHT22;51131;52.298;13.686;2023-03-01T06:00:01;16.70;44.10
64705;DHT22;51131;52.298;13.686;2023-03-01T06:02:27;16.90;44.20
64705;DHT22;51131;52.298;13.686;2023-03-01T06:04:55;17.40;44.70
64705;DHT22;51131;52.298;13.686;2023-03-01T06:07:22;16.70;43.90
64705;DHT22;51131;52.298;13.686;2023-03-01T06:09:49;16.70;44.10
64705;DHT22;51131;52.298;13.686;2023-03-01T06:12:15;16.70;44.00
64705;DHT22;51131;52.298;13.686;2023-03-01T06:14:42;16.70;43.80
64705;DHT22;51131;52.298;13.686;2023-03-01T06:17:08;17.40;44.50
64705;DHT22;51131;52.298;13.686;2023-03-01T06:19:35;17.40;44.70
64705;DHT22;51131;52.298;13.686;2023-03-01T06:22:02;16.70;43.60
64705;DHT22;51131;52.298;13.686;2023-03-01T06:24:28;16.70;43.70
64705;DHT22;51131;52.298;13.686;2023-03-01T06:26:55;16.70;44.00
64705;DHT22;51131;52.298;13.686;2023-03-01T06:29:22;16.70;43.60
64705;DHT22;51131;52.298;13.686;2023-03-01T06:31:49;16.70;43.80
64705;DHT22;51131;52.298;13.686;2023-03-01T06:34:15;16.70;43.50
64705;DHT22;51131;52.298;13.686;2023-03-01T06:36:42;16.80;43.50
64705;DHT22;51131;52.298;13.686;2023-03-01T06:39:09;16.90;43.40
64705;DHT22;51131;52.298;13.686;2023-03-01T06:41:35;16.90;43.10
64705;DHT22;51131;52.298;13.686;2023-03-01T06:44:02;17.40;43.30
64705;DHT22;51131;52.298;13.686;2023-03-01T06:46:29;17.10;42.90
64705;DHT22;51131;52.298;13.686;2023-03-01T06:48:56;17.10;42.90
64705;DHT22;51131;52.298;13.686;2023-03-01T06:51:22;17.10;42.90
64705;DHT22;51131;52.298;13.686;2023-03-01T06:53:49;17.00;43.00
64705;DHT22;51131;52.298;13.686;2023-03-01T06:56:16;17.00;43.10
64705;DHT22;51131;52.298;13.686;2023-03-01T06:58:42;17.10;43.40
64705;DHT22;51131;52.298;13.686;2023-03-01T07:01:09;16.90;43.20
64705;DHT22;51131;52.298;13.686;2023-03-01T07:03:36;17.50;43.90
64705;DHT22;51131;52.298;13.686;2023-03-01T07:06:02;17.30;43.70
64705;DHT22;51131;52.298;13.686;2023-03-01T07:08:29;16.90;43.40
64705;DHT22;51131;52.298;13.686;2023-03-01T07:10:56;16.90;43.50
64705;DHT22;51131;52.298;13.686;2023-03-01T07:13:23;16.90;43.50
64705;DHT22;51131;52.298;13.686;2023-03-01T07:15:49;16.90;43.50
64705;DHT22;51131;52.298;13.686;2023-03-01T07:18:16;16.90;43.30
64705;DHT22;51131;52.298;13.686;2023-03-01T07:20:42;16.90;43.50
64705;DHT22;51131;52.298;13.686;2023-03-01T07:23:09;16.90;43.40
64705;DHT22;51131;52.298;13.686;2023-03-01T07:25:36;16.90;43.70
64705;DHT22;51131;52.298;13.686;2023-03-01T07:28:02;16.90;43.50
64705;DHT22;51131;52.298;13.686;2023-03-01T07:30:29;16.90;43.30
64705;DHT22;51131;52.298;13.686;2023-03-01T07:32:56;17.40;44.20
64705;DHT22;51131;52.298;13.686;2023-03-01T07:35:24;16.90;43.70
64705;DHT22;51131;52.298;13.686;2023-03-01T07:37:51;16.90;43.60
64705;DHT22;51131;52.298;13.686;2023-03-01T07:40:18;16.90;43.90
64705;DHT22;51131;52.298;13.686;2023-03-01T07:42:45;16.90;43.70
64705;DHT22;51131;52.298;13.686;2023-03-01T07:45:11;17.20;44.10
64705;DHT22;51131;52.298;13.686;2023-03-01T07:47:39;16.90;44.00
64705;DHT22;51131;52.298;13.686;2023-03-01T07:50:06;16.90;43.80
64705;DHT22;51131;52.298;13.686;2023-03-01T07:52:33;16.90;44.00
64705;DHT22;51131;52.298;13.686;2023-03-01T07:54:59;16.90;44.10
64705;DHT22;51131;52.298;13.686;2023-03-01T07:57:26;16.90;44.00
64705;DHT22;51131;52.298;13.686;2023-03-01T07:59:53;16.90;44.10
64705;DHT22;51131;52.298;13.686;2023-03-01T08:02:19;16.90;45.00
64705;DHT22;51131;52.298;13.686;2023-03-01T08:04:46;16.90;44.20
64705;DHT22;51131;52.298;13.686;2023-03-01T08:07:12;16.90;44.20
64705;DHT22;51131;52.298;13.686;2023-03-01T08:09:39;17.10;44.80
64705;DHT22;51131;52.298;13.686;2023-03-01T08:12:06;16.30;43.90
64705;DHT22;51131;52.298;13.686;2023-03-01T08:14:33;16.90;44.30
64705;DHT22;51131;52.298;13.686;2023-03-01T08:16:59;16.90;44.30
64705;DHT22;51131;52.298;13.686;2023-03-01T08:19:26;16.80;44.60
64705;DHT22;51131;52.298;13.686;2023-03-01T08:21:54;16.90;44.50
64705;DHT22;51131;52.298;13.686;2023-03-01T08:24:21;16.80;44.30
64705;DHT22;51131;52.298;13.686;2023-03-01T08:26:48;16.90;44.50
64705;DHT22;51131;52.298;13.686;2023-03-01T08:29:15;16.80;44.80
64705;DHT22;51131;52.298;13.686;2023-03-01T08:31:41;16.90;44.70
64705;DHT22;51131;52.298;13.686;2023-03-01T08:34:09;16.90;44.70
64705;DHT22;51131;52.298;13.686;2023-03-01T08:36:38;16.80;44.90
64705;DHT22;51131;52.298;13.686;2023-03-01T08:39:05;16.90;44.80
64705;DHT22;51131;52.298;13.686;2023-03-01T08:41:32;16.80;45.00
64705;DHT22;51131;52.298;13.686;2023-03-01T08:43:58;16.80;45.10
64705;DHT22;51131;52.298;13.686;2023-03-01T08:46:29;16.90;45.20
64705;DHT22;51131;52.298;13.686;2023-03-01T08:48:56;16.90;45.00
64705;DHT22;51131;52.298;13.686;2023-03-01T08:51:23;17.00;44.90
64705;DHT22;51131;52.298;13.686;2023-03-01T08:53:50;17.00;44.90
64705;DHT22;51131;52.298;13.686;2023-03-01T08:56:17;17.10;44.80
64705;DHT22;51131;52.298;13.686;2023-03-01T08:58:45;17.10;44.80
64705;DHT22;51131;52.298;13.686;2023-03-01T09:01:13;17.00;44.70
64705;DHT22;51131;52.298;13.686;2023-03-01T09:03:41;17.00;45.00
64705;DHT22;51131;52.298;13.686;2023-03-01T09:06:07;17.00;45.00
64705;DHT22;51131;52.298;13.686;2023-03-01T09:08:35;17.00;44.90
64705;DHT22;51131;52.298;13.686;2023-03-01T09:11:06;17.00;44.90
64705;DHT22;51131;52.298;13.686;2023-03-01T09:13:33;16.90;44.80
64705;DHT22;51131;52.298;13.686;2023-03-01T09:16:00;17.00;44.90
64705;DHT22;51131;52.298;13.686;2023-03-01T09:18:27;17.00;45.00
64705;DHT22;51131;52.298;13.686;2023-03-01T09:21:00;17.00;45.30
64705;DHT22;51131;52.298;13.686;2023-03-01T09:23:27;16.90;44.90
64705;DHT22;51131;52.298;13.686;2023-03-01T09:25:53;16.90;44.90
64705;DHT22;51131;52.298;13.686;2023-03-01T09:28:20;16.90;45.20
64705;DHT22;51131;52.298;13.686;2023-03-01T09:30:59;16.90;45.10
64705;DHT22;51131;52.298;13.686;2023-03-01T09:33:26;16.90;45.10
64705;DHT22;51131;52.298;13.686;2023-03-01T09:36:00;16.90;45.10
64705;DHT22;51131;52.298;13.686;2023-03-01T09:38:27;16.90;45.30
64705;DHT22;51131;52.298;13.686;2023-03-01T09:40:54;16.90;45.50
64705;DHT22;51131;52.298;13.686;2023-03-01T09:45:53;16.90;45.90
64705;DHT22;51131;52.298;13.686;2023-03-01T09:48:22;16.90;45.30
64705;DHT22;51131;52.298;13.686;2023-03-01T09:50:50;16.90;45.70
64705;DHT22;51131;52.298;13.686;2023-03-01T09:53:18;16.90;45.90
64705;DHT22;51131;52.298;13.686;2023-03-01T09:55:50;16.90;45.90
64705;DHT22;51131;52.298;13.686;2023-03-01T10:03:44;16.80;46.40
64705;DHT22;51131;52.298;13.686;2023-03-01T10:06:18;16.80;45.80
64705;DHT22;51131;52.298;13.686;2023-03-01T10:09:02;16.80;45.50
64705;DHT22;51131;52.298;13.686;2023-03-01T10:11:30;16.80;45.60
64705;DHT22;51131;52.298;13.686;2023-03-01T10:14:13;16.80;46.20
64705;DHT22;51131;52.298;13.686;2023-03-01T10:16:46;16.80;45.80
64705;DHT22;51131;52.298;13.686;2023-03-01T10:19:17;16.80;45.90
64705;DHT22;51131;52.298;13.686;2023-03-01T10:21:46;16.80;45.80
64705;DHT22;51131;52.298;13.686;2023-03-01T10:24:14;16.70;45.60
64705;DHT22;51131;52.298;13.686;2023-03-01T10:26:53;16.70;45.30
64705;DHT22;51131;52.298;13.686;2023-03-01T10:29:23;16.70;45.10
64705;DHT22;51131;52.298;13.686;2023-03-01T10:31:51;16.70;45.50
64705;DHT22;51131;52.298;13.686;2023-03-01T10:34:19;16.70;45.30
64705;DHT22;51131;52.298;13.686;2023-03-01T10:36:48;16.70;45.50
64705;DHT22;51131;52.298;13.686;2023-03-01T10:39:16;16.70;45.40
64705;DHT22;51131;52.298;13.686;2023-03-01T10:44:35;16.70;45.40
64705;DHT22;51131;52.298;13.686;2023-03-01T10:47:02;16.70;45.50
64705;DHT22;51131;52.298;13.686;2023-03-01T10:49:30;16.80;45.50
64705;DHT22;51131;52.298;13.686;2023-03-01T10:51:57;16.80;45.00
64705;DHT22;51131;52.298;13.686;2023-03-01T10:54:37;16.90;44.50
64705;DHT22;51131;52.298;13.686;2023-03-01T10:57:04;17.00;44.20
64705;DHT22;51131;52.298;13.686;2023-03-01T10:59:32;17.00;44.40
64705;DHT22;51131;52.298;13.686;2023-03-01T11:05:03;17.00;44.30
64705;DHT22;51131;52.298;13.686;2023-03-01T11:10:22;16.90;44.60
64705;DHT22;51131;52.298;13.686;2023-03-01T11:12:50;16.90;44.60
64705;DHT22;51131;52.298;13.686;2023-03-01T11:15:24;16.90;44.80
64705;DHT22;51131;52.298;13.686;2023-03-01T11:17:51;16.90;45.00
64705;DHT22;51131;52.298;13.686;2023-03-01T11:20:37;16.80;45.40
64705;DHT22;51131;52.298;13.686;2023-03-01T11:23:11;16.80;45.60
64705;DHT22;51131;52.298;13.686;2023-03-01T11:25:42;16.80;45.10
64705;DHT22;51131;52.298;13.686;2023-03-01T11:28:14;16.80;44.90
64705;DHT22;51131;52.298;13.686;2023-03-01T11:30:58;16.80;44.40
64705;DHT22;51131;52.298;13.686;2023-03-01T11:36:35;16.80;45.30
64705;DHT22;51131;52.298;13.686;2023-03-01T11:39:05;16.80;45.50
64705;DHT22;51131;52.298;13.686;2023-03-01T11:41:37;16.80;45.20
64705;DHT22;51131;52.298;13.686;2023-03-01T11:44:11;16.80;44.70
64705;DHT22;51131;52.298;13.686;2023-03-01T11:46:50;16.80;45.00
64705;DHT22;51131;52.298;13.686;2023-03-01T11:52:06;16.70;44.60
64705;DHT22;51131;52.298;13.686;2023-03-01T12:05:36;16.80;45.30
64705;DHT22;51131;52.298;13.686;2023-03-01T12:08:20;16.70;44.40
64705;DHT22;51131;52.298;13.686;2023-03-01T12:13:37;16.70;44.20
64705;DHT22;51131;52.298;13.686;2023-03-01T12:16:09;16.80;44.40
64705;DHT22;51131;52.298;13.686;2023-03-01T12:50:12;16.90;43.90
64705;DHT22;51131;52.298;13.686;2023-03-01T12:52:47;17.00;44.50
64705;DHT22;51131;52.298;13.686;2023-03-01T12:55:18;17.00;44.10
64705;DHT22;51131;52.298;13.686;2023-03-01T12:57:53;16.90;44.30
64705;DHT22;51131;52.298;13.686;2023-03-01T13:03:19;16.90;43.80
64705;DHT22;51131;52.298;13.686;2023-03-01T13:08:23;16.90;44.40
64705;DHT22;51131;52.298;13.686;2023-03-01T13:11:40;16.90;43.80
64705;DHT22;51131;52.298;13.686;2023-03-01T13:13:44;16.90;44.00
64705;DHT22;51131;52.298;13.686;2023-03-01T13:16:39;16.90;44.00
64705;DHT22;51131;52.298;13.686;2023-03-01T13:19:10;16.90;44.00
64705;DHT22;51131;52.298;13.686;2023-03-01T13:21:38;16.80;43.90
64705;DHT22;51131;52.298;13.686;2023-03-01T13:24:22;16.80;44.40
64705;DHT22;51131;52.298;13.686;2023-03-01T13:29:51;16.80;44.80
64705;DHT22;51131;52.298;13.686;2023-03-01T13:32:27;16.80;44.20
64705;DHT22;51131;52.298;13.686;2023-03-01T13:37:43;16.80;43.50
64705;DHT22;51131;52.298;13.686;2023-03-01T13:42:45;16.70;43.50
64705;DHT22;51131;52.298;13.686;2023-03-01T13:45:36;16.70;44.20
64705;DHT22;51131;52.298;13.686;2023-03-01T13:48:09;16.80;44.70
64705;DHT22;51131;52.298;13.686;2023-03-01T13:50:43;16.80;44.10
64705;DHT22;51131;52.298;13.686;2023-03-01T13:53:13;16.80;44.00
64705;DHT22;51131;52.298;13.686;2023-03-01T13:55:43;16.80;43.60
64705;DHT22;51131;52.298;13.686;2023-03-01T13:58:33;16.80;43.50
64705;DHT22;51131;52.298;13.686;2023-03-01T14:00:59;16.80;43.60
64705;DHT22;51131;52.298;13.686;2023-03-01T14:03:26;16.80;43.70
64705;DHT22;51131;52.298;13.686;2023-03-01T14:05:58;16.80;44.60
64705;DHT22;51131;52.298;13.686;2023-03-01T14:08:39;16.80;44.40
64705;DHT22;51131;52.298;13.686;2023-03-01T14:14:13;16.80;43.60
64705;DHT22;51131;52.298;13.686;2023-03-01T14:16:53;16.80;43.80
64705;DHT22;51131;52.298;13.686;2023-03-01T14:19:24;16.70;43.60
64705;DHT22;51131;52.298;13.686;2023-03-01T14:24:37;16.70;44.40
64705;DHT22;51131;52.298;13.686;2023-03-01T14:27:08;16.70;44.50
64705;DHT22;51131;52.298;13.686;2023-03-01T14:29:37;16.80;44.40
64705;DHT22;51131;52.298;13.686;2023-03-01T14:32:20;16.80;44.40
64705;DHT22;51131;52.298;13.686;2023-03-01T14:34:48;16.80;44.60
64705;DHT22;51131;52.298;13.686;2023-03-01T14:37:19;16.80;44.40
64705;DHT22;51131;52.298;13.686;2023-03-01T14:39:47;16.80;44.40
64705;DHT22;51131;52.298;13.686;2023-03-01T14:42:14;16.90;43.80
64705;DHT22;51131;52.298;13.686;2023-03-01T14:44:42;17.00;43.50
64705;DHT22;51131;52.298;13.686;2023-03-01T14:47:11;17.00;43.30
64705;DHT22;51131;52.298;13.686;2023-03-01T14:49:38;17.00;43.30
64705;DHT22;51131;52.298;13.686;2023-03-01T14:52:07;17.00;43.30
64705;DHT22;51131;52.298;13.686;2023-03-01T14:57:04;17.00;43.50
64705;DHT22;51131;52.298;13.686;2023-03-01T14:59:32;17.00;43.50
64705;DHT22;51131;52.298;13.686;2023-03-01T15:01:59;17.00;43.60
64705;DHT22;51131;52.298;13.686;2023-03-01T15:04:26;17.00;43.50
64705;DHT22;51131;52.298;13.686;2023-03-01T15:06:54;17.30;43.40
64705;DHT22;51131;52.298;13.686;2023-03-01T15:09:21;16.90;43.10
64705;DHT22;51131;52.298;13.686;2023-03-01T15:11:48;16.90;43.50
64705;DHT22;51131;52.298;13.686;2023-03-01T15:17:00;16.90;43.50
64705;DHT22;51131;52.298;13.686;2023-03-01T15:19:27;16.90;43.50
64705;DHT22;51131;52.298;13.686;2023-03-01T15:21:54;16.90;43.50
64705;DHT22;51131;52.298;13.686;2023-03-01T15:24:25;16.90;43.80
64705;DHT22;51131;52.298;13.686;2023-03-01T15:26:57;16.90;43.60
64705;DHT22;51131;52.298;13.686;2023-03-01T15:29:28;16.80;43.50
64705;DHT22;51131;52.298;13.686;2023-03-01T15:31:58;16.80;43.80
64705;DHT22;51131;52.298;13.686;2023-03-01T15:34:29;16.80;43.90
64705;DHT22;51131;52.298;13.686;2023-03-01T15:36:57;16.80;43.60
64705;DHT22;51131;52.298;13.686;2023-03-01T15:41:59;16.80;43.30
64705;DHT22;51131;52.298;13.686;2023-03-01T15:44:30;16.90;43.40
64705;DHT22;51131;52.298;13.686;2023-03-01T15:47:22;17.10;43.60
64705;DHT22;51131;52.298;13.686;2023-03-01T15:49:50;16.80;43.50
64705;DHT22;51131;52.298;13.686;2023-03-01T15:55:02;16.80;43.80
64705;DHT22;51131;52.298;13.686;2023-03-01T15:57:29;16.80;43.90
64705;DHT22;51131;52.298;13.686;2023-03-01T15:59:56;16.80;44.20
64705;DHT22;51131;52.298;13.686;2023-03-01T16:02:22;16.80;44.40
64705;DHT22;51131;52.298;13.686;2023-03-01T16:04:50;16.90;44.50
64705;DHT22;51131;52.298;13.686;2023-03-01T16:07:16;16.90;43.80
64705;DHT22;51131;52.298;13.686;2023-03-01T16:09:43;17.00;43.80
64705;DHT22;51131;52.298;13.686;2023-03-01T16:12:14;17.20;43.80
64705;DHT22;51131;52.298;13.686;2023-03-01T16:14:41;17.10;43.50
64705;DHT22;51131;52.298;13.686;2023-03-01T16:17:08;17.10;43.30
64705;DHT22;51131;52.298;13.686;2023-03-01T16:19:37;17.10;43.40
64705;DHT22;51131;52.298;13.686;2023-03-01T16:22:04;17.10;43.60
64705;DHT22;51131;52.298;13.686;2023-03-01T16:24:31;17.00;43.50
64705;DHT22;51131;52.298;13.686;2023-03-01T16:26:57;17.00;43.60
64705;DHT22;51131;52.298;13.686;2023-03-01T16:29:24;16.40;42.90
64705;DHT22;51131;52.298;13.686;2023-03-01T16:31:51;17.00;43.40
64705;DHT22;51131;52.298;13.686;2023-03-01T16:34:17;17.00;43.50
64705;DHT22;51131;52.298;13.686;2023-03-01T16:36:44;17.00;43.60
64705;DHT22;51131;52.298;13.686;2023-03-01T16:39:11;17.00;43.80
64705;DHT22;51131;52.298;13.686;2023-03-01T16:41:37;17.00;44.40
64705;DHT22;51131;52.298;13.686;2023-03-01T16:44:04;17.00;43.80
64705;DHT22;51131;52.298;13.686;2023-03-01T16:46:31;17.00;43.70
64705;DHT22;51131;52.298;13.686;2023-03-01T16:48:57;17.00;43.90
64705;DHT22;51131;52.298;13.686;2023-03-01T16:51:24;16.90;43.80
64705;DHT22;51131;52.298;13.686;2023-03-01T16:53:51;16.90;44.00
64705;DHT22;51131;52.298;13.686;2023-03-01T16:56:18;16.90;44.00
64705;DHT22;51131;52.298;13.686;2023-03-01T16:58:45;17.30;44.20
64705;DHT22;51131;52.298;13.686;2023-03-01T17:01:16;16.90;43.90
64705;DHT22;51131;52.298;13.686;2023-03-01T17:03:43;16.90;44.00
64705;DHT22;51131;52.298;13.686;2023-03-01T17:06:11;16.90;44.20
64705;DHT22;51131;52.298;13.686;2023-03-01T17:08:38;16.30;43.60
64705;DHT22;51131;52.298;13.686;2023-03-01T17:11:09;16.90;44.00
64705;DHT22;51131;52.298;13.686;2023-03-01T17:13:36;16.90;43.90
64705;DHT22;51131;52.298;13.686;2023-03-01T17:16:04;16.90;44.70